Time;durP1;ratioP1;P1;durP2;ratioP2;P2;SDS_P1;SDS_P2;PMS_P1;PMS_P2;Temp;Humidity;BMP_temperature;BMP_pressure;BME280_temperature;BME280_humidity;BME280_pressure;Samples;Min_cycle;Max_cycle;Signal;HPM_P1;HPM_P2
2023/08/19 00:04:22;;;;;;;8.43;2.00;;;;;;;20.08;66.12;99761.94;10476846;28;20047;-59
2023/08/19 00:09:24;;;;;;;5.10;1.83;;;;;;;20.08;66.24;99766.38;10477079;28;20092;-59
2023/08/19 00:14:26;;;;;;;4.78;2.38;;;;;;;20.16;66.11;99758.47;10475937;28;20411;-59
2023/08/19 00:19:28;;;;;;;4.00;2.00;;;;;;;20.19;65.98;99755.53;10457788;28;20127;-59
2023/08/19 00:24:30;;;;;;;2.97;1.77;;;;;;;20.16;65.95;99750.50;10476301;28;20060;-59
2023/08/19 00:29:32;;;;;;;5.30;2.30;;;;;;;19.87;66.87;99747.31;10476239;28;20292;-59
2023/08/19 00:34:34;;;;;;;4.32;2.15;;;;;;;20.07;66.53;99741.66;10457447;28;20041;-59
2023/08/19 00:39:36;;;;;;;11.50;2.88;;;;;;;20.17;66.38;99744.22;10457828;28;20047;-59
2023/08/19 00:44:38;;;;;;;8.38;2.50;;;;;;;19.99;66.87;99746.91;10475359;28;20501;-59
2023/08/19 00:49:40;;;;;;;4.32;2.00;;;;;;;20.07;66.83;99751.47;10475538;28;20123;-59
2023/08/19 00:54:43;;;;;;;3.70;2.15;;;;;;;20.15;66.72;99746.22;10457215;28;20048;-59
2023/08/19 00:59:45;;;;;;;6.82;2.47;;;;;;;20.14;66.35;99744.53;10474072;28;20130;-59
2023/08/19 01:04:47;;;;;;;5.30;2.15;;;;;;;20.14;66.27;99741.88;10484331;28;20459;-59
2023/08/19 01:09:49;;;;;;;8.30;2.42;;;;;;;20.06;66.13;99757.75;10457755;28;20144;-59
2023/08/19 01:15:21;;;;;;;5.30;2.05;;;;;;;19.66;67.92;99749.47;10456558;28;20049;-59
2023/08/19 01:20:31;;;;;;;12.68;3.17;;;;;;;19.74;67.35;99747.72;10456458;28;20541;-59
2023/08/19 01:25:33;;;;;;;4.57;2.22;;;;;;;19.88;66.81;99736.56;10456148;28;20597;-59
2023/08/19 01:30:35;;;;;;;8.65;2.50;;;;;;;19.92;66.96;99724.66;10456421;28;20060;-59
2023/08/19 01:35:42;;;;;;;2.80;1.77;;;;;;;19.91;66.87;99716.84;10489953;28;20053;-58
2023/08/19 01:40:45;;;;;;;3.90;1.88;;;;;;;19.84;67.03;99737.88;10490069;28;20132;-58
2023/08/19 01:45:47;;;;;;;8.20;2.88;;;;;;;19.79;67.37;99737.47;10457256;28;20276;-59
2023/08/19 01:50:50;;;;;;;4.85;2.10;;;;;;;19.80;66.91;99733.00;10456761;28;20212;-59
2023/08/19 01:55:52;;;;;;;4.65;2.10;;;;;;;19.81;66.88;99735.50;10456330;28;20475;-59
2023/08/19 02:00:54;;;;;;;3.80;2.05;;;;;;;19.73;66.91;99737.22;10488701;28;20075;-58
2023/08/19 02:05:56;;;;;;;7.03;2.10;;;;;;;19.74;67.14;99746.88;10463037;28;20836;-59
2023/08/19 02:10:59;;;;;;;3.80;2.10;;;;;;;19.72;66.87;99744.38;10481578;28;20040;-59
2023/08/19 02:16:01;;;;;;;5.88;2.05;;;;;;;19.63;66.65;99739.16;10463416;28;20051;-58
2023/08/19 02:21:03;;;;;;;7.43;1.92;;;;;;;19.57;66.67;99745.06;10462889;28;20086;-58
2023/08/19 02:26:05;;;;;;;4.93;2.17;;;;;;;19.56;66.91;99751.38;10481103;28;20368;-58
2023/08/19 02:31:07;;;;;;;4.40;2.20;;;;;;;19.54;67.43;99748.88;10480090;28;20319;-58
2023/08/19 02:36:09;;;;;;;3.08;1.92;;;;;;;19.53;67.21;99741.06;10461286;28;20405;-58
2023/08/19 02:41:12;;;;;;;6.38;2.40;;;;;;;19.59;67.26;99740.44;10480185;28;20045;-59
2023/08/19 02:46:14;;;;;;;12.00;3.03;;;;;;;19.64;67.48;99739.00;10479918;28;20139;-59
2023/08/19 02:51:16;;;;;;;6.15;2.70;;;;;;;19.76;67.08;99734.28;10478574;28;20048;-59
2023/08/19 02:56:17;;;;;;;4.85;2.40;;;;;;;19.56;67.57;99727.50;10461400;28;20123;-59
2023/08/19 03:01:19;;;;;;;5.38;2.30;;;;;;;19.51;67.82;99732.41;10444277;28;20053;-59
2023/08/19 03:06:22;;;;;;;4.03;2.35;;;;;;;19.64;67.75;99735.53;10479401;28;20048;-59
2023/08/19 03:11:24;;;;;;;4.93;2.20;;;;;;;19.70;67.43;99746.34;10473897;28;20044;-59
2023/08/19 03:16:26;;;;;;;5.70;2.75;;;;;;;19.66;67.59;99738.84;10478317;28;20127;-59
2023/08/19 03:21:28;;;;;;;5.68;1.95;;;;;;;19.62;67.28;99738.34;10474930;28;20759;-59
2023/08/19 03:26:30;;;;;;;6.72;1.90;;;;;;;19.59;67.09;99730.66;10459370;28;20057;-59
2023/08/19 03:31:32;;;;;;;5.28;2.05;;;;;;;19.54;67.56;99724.16;10477018;28;20048;-59
2023/08/19 03:36:35;;;;;;;3.25;1.73;;;;;;;19.54;67.44;99725.00;10476543;28;20040;-59
2023/08/19 03:41:37;;;;;;;6.72;2.10;;;;;;;19.56;67.15;99716.88;10459313;28;20037;-59
2023/08/19 03:46:39;;;;;;;4.45;2.30;;;;;;;19.51;67.10;99712.03;10477389;28;20051;-59
2023/08/19 03:51:41;;;;;;;5.20;1.88;;;;;;;19.51;67.21;99722.66;10477134;28;20098;-60
2023/08/19 03:56:43;;;;;;;5.63;1.88;;;;;;;19.51;67.51;99721.81;10459456;28;20153;-59
2023/08/19 04:01:45;;;;;;;4.38;1.90;;;;;;;19.56;67.12;99722.19;10477299;28;20524;-60
2023/08/19 04:06:47;;;;;;;3.50;1.80;;;;;;;19.40;67.06;99714.91;10459363;28;20109;-60
2023/08/19 04:11:51;;;;;;;3.58;1.92;;;;;;;19.14;67.63;99714.00;10476227;28;20056;-59
2023/08/19 04:16:54;;;;;;;5.80;1.95;;;;;;;19.17;67.98;99714.56;10477163;28;20523;-58
2023/08/19 04:21:56;;;;;;;3.50;2.00;;;;;;;19.13;67.67;99707.06;10457669;28;20080;-58
2023/08/19 04:27:02;;;;;;;3.40;1.90;;;;;;;19.13;67.82;99712.38;10490665;28;20401;-58
2023/08/19 04:32:04;;;;;;;5.25;2.05;;;;;;;19.10;68.06;99707.34;10491361;28;20090;-58
2023/08/19 04:37:08;;;;;;;3.58;1.85;;;;;;;18.88;68.36;99713.91;10473776;28;20048;-59
2023/08/19 04:42:13;;;;;;;6.63;3.30;;;;;;;18.99;68.34;99716.31;10458005;28;20136;-59
2023/08/19 04:47:15;;;;;;;5.05;2.10;;;;;;;19.15;68.08;99724.50;10458069;28;20143;-60
2023/08/19 04:52:17;;;;;;;5.53;2.10;;;;;;;19.33;67.73;99729.78;10490454;28;20094;-59
2023/08/19 04:57:19;;;;;;;9.05;2.53;;;;;;;19.62;67.50;99738.34;10476041;28;20139;-59
2023/08/19 05:02:21;;;;;;;5.95;1.90;;;;;;;19.78;67.09;99743.75;10456764;28;20394;-59
2023/08/19 05:07:23;;;;;;;5.22;2.13;;;;;;;20.02;67.17;99741.31;10457173;28;20048;-60
2023/08/19 05:12:26;;;;;;;4.90;2.05;;;;;;;20.34;66.06;99742.50;10457298;28;20048;-59
2023/08/19 05:17:28;;;;;;;3.42;1.90;;;;;;;20.65;65.51;99743.66;10473917;28;20053;-59
2023/08/19 05:22:30;;;;;;;6.47;2.45;;;;;;;20.73;65.10;99744.53;10456758;28;20201;-60
2023/08/19 05:27:32;;;;;;;5.30;1.90;;;;;;;20.74;65.07;99753.34;10474809;28;20040;-59
2023/08/19 05:32:35;;;;;;;6.35;1.90;;;;;;;20.83;64.90;99766.47;10474505;28;20052;-60
2023/08/19 05:37:37;;;;;;;5.97;2.67;;;;;;;20.84;64.85;99762.00;10479411;28;20433;-59
2023/08/19 05:42:39;;;;;;;5.57;2.10;;;;;;;20.89;64.89;99767.66;10482835;28;20049;-59
2023/08/19 05:47:41;;;;;;;5.25;2.08;;;;;;;20.88;64.82;99773.97;10482110;28;20774;-60
2023/08/19 05:52:43;;;;;;;4.85;2.00;;;;;;;20.57;65.00;99791.41;10464437;28;20127;-60
2023/08/19 05:57:45;;;;;;;5.10;2.10;;;;;;;20.55;65.39;99791.56;10481990;28;20060;-60
2023/08/19 06:02:47;;;;;;;8.77;2.75;;;;;;;20.58;65.22;99793.94;10481403;28;20431;-59
2023/08/19 06:07:49;;;;;;;5.25;2.33;;;;;;;20.89;65.21;99783.59;10481601;28;20044;-60
2023/08/19 06:12:51;;;;;;;7.57;3.65;;;;;;;21.20;64.80;99782.03;10462892;28;20131;-59
2023/08/19 06:17:55;;;;;;;5.68;2.10;;;;;;;21.50;64.37;99792.09;10462701;28;20047;-60
2023/08/19 06:22:57;;;;;;;3.38;2.20;;;;;;;21.63;64.02;99779.16;10480935;28;20040;-60
2023/08/19 06:27:59;;;;;;;5.13;2.10;;;;;;;21.90;63.64;99799.28;10480837;28;20055;-60
2023/08/19 06:33:01;;;;;;;4.22;2.08;;;;;;;22.13;62.89;99788.81;10462345;28;20067;-60
2023/08/19 06:38:11;;;;;;;4.00;2.00;;;;;;;22.43;62.72;99802.22;10479858;28;20139;-60
2023/08/19 06:43:13;;;;;;;6.25;2.30;;;;;;;22.57;62.36;99806.88;10479823;28;20048;-60
2023/08/19 06:48:17;;;;;;;4.28;2.08;;;;;;;22.59;62.03;99796.03;10478949;28;20053;-60
2023/08/19 06:53:20;;;;;;;4.75;2.10;;;;;;;22.59;61.91;99801.38;10479736;28;20084;-60
2023/08/19 06:58:28;;;;;;;3.17;1.80;;;;;;;22.77;61.71;99809.16;10445323;28;20139;-60
2023/08/19 07:03:33;;;;;;;3.80;2.00;;;;;;;22.85;61.39;99811.78;10479415;28;20493;-60
2023/08/19 07:08:38;;;;;;;4.05;1.75;;;;;;;22.79;60.82;99812.47;10479077;28;20080;-60
2023/08/19 07:13:40;;;;;;;7.38;2.00;;;;;;;22.93;60.17;99809.09;10478783;28;20059;-60
2023/08/19 07:18:52;;;;;;;7.93;2.17;;;;;;;22.75;59.58;99816.50;10460763;28;20098;-60
2023/08/19 07:23:58;;;;;;;3.83;1.80;;;;;;;23.14;59.57;99822.66;10478010;28;20048;-60
2023/08/19 07:29:00;;;;;;;4.60;1.85;;;;;;;23.59;58.58;99820.09;10478763;28;20121;-60
2023/08/19 07:34:03;;;;;;;4.60;2.53;;;;;;;23.84;57.72;99821.56;10477819;28;20040;-61
2023/08/19 07:39:05;;;;;;;3.72;1.90;;;;;;;24.35;56.79;99816.50;10477972;28;20527;-60
2023/08/19 07:44:07;;;;;;;3.55;1.80;;;;;;;25.69;54.51;99827.50;10477567;28;20249;-59
2023/08/19 07:49:09;;;;;;;3.72;1.70;;;;;;;26.30;53.24;99819.84;10477946;28;20561;-61
2023/08/19 07:54:12;;;;;;;3.60;1.95;;;;;;;26.83;50.84;99810.28;10477305;28;20048;-60
2023/08/19 07:59:14;;;;;;;7.85;1.60;;;;;;;27.08;51.32;99808.72;10477153;28;20516;-59
2023/08/19 08:04:16;;;;;;;4.78;2.22;;;;;;;26.80;50.96;99813.34;10477124;28;20492;-59
2023/08/19 08:09:19;;;;;;;6.00;2.63;;;;;;;26.45;51.85;99813.34;10459130;28;20318;-59
2023/08/19 08:14:21;;;;;;;6.25;1.80;;;;;;;26.56;51.60;99807.47;10476828;28;20269;-60
2023/08/19 08:19:25;;;;;;;3.92;1.90;;;;;;;26.67;51.52;99808.72;10476716;28;20049;-59
2023/08/19 08:24:27;;;;;;;4.38;1.80;;;;;;;26.64;51.18;99801.09;10476076;28;20045;-60
2023/08/19 08:29:29;;;;;;;7.47;2.42;;;;;;;26.58;51.82;99805.41;10476242;28;20076;-58
2023/08/19 08:34:31;;;;;;;4.55;1.77;;;;;;;26.37;51.82;99801.91;10457375;28;20048;-60
2023/08/19 08:39:33;;;;;;;4.40;1.80;;;;;;;26.34;52.30;99805.84;10476522;28;20048;-59
2023/08/19 08:44:37;;;;;;;5.57;1.92;;;;;;;26.27;52.13;99804.97;10475646;28;20155;-60
2023/08/19 08:49:39;;;;;;;8.60;2.03;;;;;;;26.57;51.97;99793.00;10491408;28;20051;-61
2023/08/19 08:54:42;;;;;;;5.15;1.80;;;;;;;26.73;51.56;99799.91;10475536;28;20508;-59
2023/08/19 08:59:45;;;;;;;3.05;1.70;;;;;;;26.73;51.38;99797.22;10475508;28;20044;-59
2023/08/19 09:04:47;;;;;;;4.95;2.00;;;;;;;27.00;51.13;99807.06;10475037;28;20044;-61
2023/08/19 09:09:52;;;;;;;4.95;2.10;;;;;;;27.20;50.85;99807.97;10475659;28;20045;-60
2023/08/19 09:15:00;;;;;;;6.53;2.10;;;;;;;27.38;50.46;99821.66;10483840;28;20582;-60
2023/08/19 09:20:03;;;;;;;2.50;1.63;;;;;;;27.52;50.68;99827.94;10483441;28;20171;-60
2023/08/19 09:25:07;;;;;;;3.83;1.70;;;;;;;27.60;50.71;99824.22;10483558;28;20057;-60
2023/08/19 09:30:16;;;;;;;5.80;2.28;;;;;;;27.77;49.89;99814.78;10483298;28;20044;-59
2023/08/19 09:35:18;;;;;;;5.80;2.00;;;;;;;28.19;49.46;99819.75;10482655;28;20036;-61
2023/08/19 09:40:21;;;;;;;3.38;1.88;;;;;;;28.55;48.41;99809.38;10482592;28;20051;-60
2023/08/19 09:45:25;;;;;;;4.47;1.73;;;;;;;29.05;47.77;99797.03;10482466;28;20055;-60
2023/08/19 09:50:28;;;;;;;4.43;2.03;;;;;;;29.06;47.40;99798.69;10464579;28;20048;-59
2023/08/19 09:55:32;;;;;;;5.55;1.90;;;;;;;28.98;47.65;99804.31;10463777;28;20654;-61
2023/08/19 10:00:34;;;;;;;3.28;1.70;;;;;;;29.28;47.17;99809.97;10463787;28;20060;-59
2023/08/19 10:05:40;;;;;;;4.05;2.03;;;;;;;29.75;46.72;99796.84;10481898;28;20432;-59
2023/08/19 10:10:45;;;;;;;3.13;1.70;;;;;;;30.50;44.86;99787.72;10481719;28;20055;-59
2023/08/19 10:15:48;;;;;;;2.97;1.77;;;;;;;30.46;44.99;99781.13;10481283;28;20086;-60
2023/08/19 10:20:55;;;;;;;3.50;1.70;;;;;;;30.69;44.20;99788.56;10480433;28;20132;-60
2023/08/19 10:25:58;;;;;;;3.25;2.00;;;;;;;30.51;44.22;99799.34;10477687;28;20070;-60
2023/08/19 10:31:03;;;;;;;6.60;1.90;;;;;;;29.85;44.74;99824.16;10480752;28;20814;-60
2023/08/19 10:36:07;;;;;;;3.90;1.50;;;;;;;29.75;45.75;99836.47;10480784;28;20121;-60
2023/08/19 10:41:33;;;;;;;4.40;2.05;;;;;;;29.60;45.74;99852.13;10459887;28;20040;-60
2023/08/19 10:46:40;;;;;;;3.80;1.88;;;;;;;30.01;44.96;99848.97;10480318;28;20723;-59
2023/08/19 10:52:03;;;;;;;4.25;1.88;;;;;;;30.01;45.25;99855.19;10461481;28;20044;-60
2023/08/19 10:57:06;;;;;;;4.53;1.73;;;;;;;30.19;45.12;99851.75;10461617;28;20062;-60
2023/08/19 11:02:09;;;;;;;7.50;1.77;;;;;;;30.26;44.63;99845.22;10479458;28;20040;-59
2023/08/19 11:07:11;;;;;;;4.97;1.67;;;;;;;30.08;45.40;99868.63;10479536;28;20127;-59
2023/08/19 11:12:19;;;;;;;3.97;1.85;;;;;;;30.11;45.46;99854.72;10478788;28;20072;-60
2023/08/19 11:17:32;;;;;;;3.75;1.80;;;;;;;30.09;46.02;99870.28;10479063;28;20125;-60
2023/08/19 11:22:46;;;;;;;5.07;1.98;;;;;;;30.44;45.02;99856.06;10478044;28;20135;-60
2023/08/19 11:27:48;;;;;;;3.70;1.80;;;;;;;30.91;44.67;99859.13;10460792;28;20075;-60
2023/08/19 11:32:54;;;;;;;6.60;1.95;;;;;;;30.88;43.92;99856.91;10477561;28;20040;-59
2023/08/19 11:37:56;;;;;;;3.20;1.63;;;;;;;30.98;44.59;99865.34;10477792;28;20503;-59
2023/08/19 11:43:09;;;;;;;6.93;1.85;;;;;;;31.07;44.08;99869.41;10477346;28;20561;-59
2023/08/19 11:48:15;;;;;;;5.82;1.70;;;;;;;31.07;43.85;99872.09;10477909;28;20074;-59
2023/08/19 11:53:24;;;;;;;3.78;1.83;;;;;;;31.04;44.40;99878.78;10458950;28;20135;-59
2023/08/19 11:58:40;;;;;;;3.58;1.75;;;;;;;30.77;44.74;99885.47;10477281;28;20053;-59
2023/08/19 12:03:44;;;;;;;3.38;1.42;;;;;;;30.87;45.23;99893.06;10492110;28;20050;-59
2023/08/19 12:08:48;;;;;;;4.93;1.80;;;;;;;30.87;44.70;99891.19;10459198;28;20054;-59
2023/08/19 12:13:51;;;;;;;4.60;2.05;;;;;;;30.90;44.67;99906.97;10476444;28;20036;-59
2023/08/19 12:18:53;;;;;;;3.28;1.83;;;;;;;30.92;44.73;99912.13;10458517;28;20386;-59
2023/08/19 12:23:55;;;;;;;4.20;1.95;;;;;;;31.05;44.43;99912.81;10476266;28;20052;-59
2023/08/19 12:28:57;;;;;;;5.57;2.20;;;;;;;30.99;44.68;99915.59;10476537;28;20051;-59
2023/08/19 12:33:59;;;;;;;2.78;1.77;;;;;;;31.08;45.23;99907.00;10457801;28;20140;-59
2023/08/19 12:39:00;;;;;;;3.45;1.88;;;;;;;31.51;44.08;99903.38;10476317;28;20032;-59
2023/08/19 12:44:03;;;;;;;3.88;1.70;;;;;;;31.85;43.84;99894.59;10475179;28;20115;-59
2023/08/19 12:49:05;;;;;;;3.90;1.80;;;;;;;31.97;43.80;99915.22;10468583;28;20093;-59
2023/08/19 12:54:08;;;;;;;4.60;2.10;;;;;;;31.69;43.34;99912.28;10473585;28;20531;-59
2023/08/19 12:59:10;;;;;;;3.92;1.80;;;;;;;31.96;43.59;99923.56;10473746;28;20033;-59
2023/08/19 13:04:12;;;;;;;4.15;1.83;;;;;;;32.05;42.94;99941.13;10474876;28;20036;-59
2023/08/19 13:09:14;;;;;;;2.80;1.50;;;;;;;32.01;43.18;99958.88;10474320;28;20052;-59
2023/08/19 13:14:16;;;;;;;4.93;1.85;;;;;;;31.86;43.23;99961.97;10475022;28;20075;-59
2023/08/19 13:19:18;;;;;;;4.30;2.10;;;;;;;31.81;43.01;99972.66;10474249;28;20041;-60
2023/08/19 13:24:20;;;;;;;6.75;1.90;;;;;;;31.91;43.31;99982.94;10474831;28;20052;-59
2023/08/19 13:29:22;;;;;;;4.10;2.00;;;;;;;32.10;43.10;99977.28;10475380;28;20155;-59
2023/08/19 13:34:24;;;;;;;5.63;1.98;;;;;;;32.18;43.19;99971.56;10474593;28;20056;-59
2023/08/19 13:39:30;;;;;;;4.15;2.03;;;;;;;32.04;43.21;99980.09;10475171;28;20080;-60
2023/08/19 13:44:33;;;;;;;3.60;1.83;;;;;;;31.99;43.51;99990.75;10475115;28;20047;-60
2023/08/19 13:49:34;;;;;;;4.95;1.85;;;;;;;31.89;43.75;99985.03;10489960;28;20049;-60
2023/08/19 13:54:36;;;;;;;4.53;2.00;;;;;;;31.58;44.17;99985.25;10474348;28;20056;-60
2023/08/19 13:59:39;;;;;;;5.53;2.35;;;;;;;31.47;44.07;99995.72;10479884;28;20447;-60
2023/08/19 14:04:41;;;;;;;3.33;1.98;;;;;;;31.32;44.67;100005.25;10481804;28;20040;-60
2023/08/19 14:09:43;;;;;;;5.25;2.25;;;;;;;31.33;44.73;99999.59;10481598;28;20469;-59
2023/08/19 14:14:45;;;;;;;4.93;2.05;;;;;;;31.37;44.50;100013.53;10496923;28;20135;-60
2023/08/19 14:19:47;;;;;;;2.83;1.70;;;;;;;31.29;44.48;100013.81;10480802;28;20164;-60
2023/08/19 14:24:49;;;;;;;5.32;2.20;;;;;;;31.44;44.59;100008.84;10455222;28;20127;-60
2023/08/19 14:29:51;;;;;;;3.08;1.73;;;;;;;31.59;44.43;100000.41;10440143;28;20056;-59
2023/08/19 14:34:53;;;;;;;4.97;2.13;;;;;;;31.54;44.65;100000.28;10439172;28;20053;-60
2023/08/19 14:39:55;;;;;;;6.93;1.95;;;;;;;31.41;43.27;100010.13;10439083;28;20135;-60
2023/08/19 14:44:57;;;;;;;3.67;1.83;;;;;;;31.26;43.18;100031.28;10438884;28;20474;-60
2023/08/19 14:49:59;;;;;;;4.70;2.05;;;;;;;31.22;42.89;100038.19;10470019;28;20551;-60
2023/08/19 14:55:01;;;;;;;4.22;1.90;;;;;;;31.01;43.38;100027.78;10438829;28;20135;-60
2023/08/19 15:00:06;;;;;;;4.00;1.92;;;;;;;30.46;44.86;100020.50;10438438;28;20041;-59
2023/08/19 15:05:08;;;;;;;3.72;2.05;;;;;;;30.22;45.47;100032.03;10438083;28;20344;-59
2023/08/19 15:10:11;;;;;;;7.40;2.20;;;;;;;30.03;45.59;100031.09;10437428;28;20084;-60
2023/08/19 15:15:17;;;;;;;5.82;2.40;;;;;;;29.31;47.44;100069.00;10437874;28;20063;-60
2023/08/19 15:20:20;;;;;;;8.70;1.90;;;;;;;28.46;47.69;100079.69;10438073;28;20136;-60
2023/08/19 15:25:22;;;;;;;3.83;1.80;;;;;;;28.18;47.42;100073.56;10435893;28;20501;-60
2023/08/19 15:30:24;;;;;;;3.80;1.55;;;;;;;28.09;46.86;100064.03;10437227;28;20052;-60
2023/08/19 15:35:27;;;;;;;2.88;1.33;;;;;;;27.80;46.80;100034.75;10436874;28;20053;-60
2023/08/19 15:40:30;;;;;;;4.95;1.35;;;;;;;27.64;47.46;100008.19;10436887;28;20055;-59
2023/08/19 15:45:32;;;;;;;2.97;1.27;;;;;;;27.63;46.91;100039.59;10436490;28;20533;-59
2023/08/19 15:50:36;;;;;;;3.70;1.50;;;;;;;27.70;47.02;100085.31;10436368;28;20745;-59
2023/08/19 15:55:38;;;;;;;2.92;1.60;;;;;;;27.92;46.67;100105.72;10433151;28;20056;-59
2023/08/19 16:00:40;;;;;;;2.88;1.40;;;;;;;28.12;46.49;100104.78;10434257;28;20045;-59
2023/08/19 16:05:42;;;;;;;2.25;1.38;;;;;;;28.17;45.56;100099.66;10435551;28;20436;-59
2023/08/19 16:10:44;;;;;;;4.00;1.27;;;;;;;28.05;46.07;100106.63;10435731;28;20056;-59
2023/08/19 16:15:48;;;;;;;2.33;1.40;;;;;;;27.76;47.32;100119.50;10435957;28;20099;-59
2023/08/19 16:20:53;;;;;;;4.70;1.70;;;;;;;27.62;47.21;100118.56;10434338;28;20041;-59
2023/08/19 16:25:58;;;;;;;2.95;1.50;;;;;;;27.52;48.11;100108.13;10476193;28;20044;-59
2023/08/19 16:31:04;;;;;;;2.85;1.40;;;;;;;27.22;49.09;100074.44;10474266;28;20041;-59
2023/08/19 16:36:06;;;;;;;3.60;1.60;;;;;;;26.88;49.66;100106.56;10484318;28;20265;-60
2023/08/19 16:41:09;;;;;;;2.88;1.50;;;;;;;26.74;51.51;100118.19;10473063;28;20143;-64
2023/08/19 16:46:11;;;;;;;4.00;1.40;;;;;;;26.57;50.99;100122.97;10467680;28;20048;-64
2023/08/19 16:51:13;;;;;;;2.25;1.42;;;;;;;26.58;52.01;100115.75;10470256;28;20036;-64
2023/08/19 16:56:16;;;;;;;5.75;1.60;;;;;;;26.68;51.06;100100.16;10468484;28;20395;-64
2023/08/19 17:01:18;;;;;;;3.08;1.60;;;;;;;27.10;50.10;100102.00;10469051;28;20549;-64
2023/08/19 17:06:21;;;;;;;2.63;1.60;;;;;;;27.27;50.35;100124.91;10473405;28;20047;-64
2023/08/19 17:11:23;;;;;;;3.25;1.65;;;;;;;27.20;51.25;100121.34;10470634;28;20419;-64
2023/08/19 17:16:25;;;;;;;3.13;1.67;;;;;;;27.03;51.16;100112.69;10471184;28;20379;-64
2023/08/19 17:21:28;;;;;;;2.80;1.80;;;;;;;26.99;51.26;100138.28;10476310;28;20509;-63
2023/08/19 17:26:30;;;;;;;2.70;1.52;;;;;;;26.88;51.90;100125.34;10444052;28;20801;-63
2023/08/19 17:31:35;;;;;;;4.72;2.10;;;;;;;26.59;52.93;100139.69;10468723;28;20040;-63
2023/08/19 17:36:38;;;;;;;2.42;1.38;;;;;;;26.26;53.39;100140.31;10476466;28;20476;-64
2023/08/19 17:41:41;;;;;;;4.32;2.28;;;;;;;26.02;53.89;100138.75;10471147;28;20037;-63
2023/08/19 17:46:44;;;;;;;3.22;1.63;;;;;;;25.82;54.35;100145.66;10469459;28;20036;-64
2023/08/19 17:51:48;;;;;;;3.40;1.70;;;;;;;25.74;54.50;100146.56;10457013;28;20028;-64
2023/08/19 17:56:51;;;;;;;3.72;1.60;;;;;;;25.81;54.09;100155.53;10451532;28;20131;-65
2023/08/19 18:01:53;;;;;;;5.47;1.52;;;;;;;25.70;55.26;100155.16;10473120;28;20044;-65
2023/08/19 18:06:55;;;;;;;4.32;1.70;;;;;;;25.62;55.55;100145.38;10472869;28;20037;-63
2023/08/19 18:11:57;;;;;;;2.65;1.67;;;;;;;25.58;55.83;100143.22;10457243;28;20044;-65
2023/08/19 18:16:59;;;;;;;4.03;1.75;;;;;;;25.28;56.48;100138.81;10490929;28;20134;-64
2023/08/19 18:22:03;;;;;;;5.25;1.75;;;;;;;25.17;57.14;100148.09;10473120;28;20052;-64
2023/08/19 18:27:06;;;;;;;3.15;1.80;;;;;;;25.29;57.16;100156.53;10477811;28;20135;-64
2023/08/19 18:32:08;;;;;;;4.90;1.85;;;;;;;25.25;57.41;100166.75;10473822;28;20128;-64
2023/08/19 18:37:11;;;;;;;4.22;2.05;;;;;;;25.09;57.88;100178.44;10458228;28;20055;-64
2023/08/19 18:42:13;;;;;;;15.18;2.58;;;;;;;24.96;58.43;100180.03;10472597;28;20053;-64
2023/08/19 18:47:16;;;;;;;6.82;1.83;;;;;;;24.82;58.88;100170.09;10456027;28;20045;-63
2023/08/19 18:52:19;;;;;;;3.58;1.65;;;;;;;24.84;58.99;100176.09;10475203;28;20381;-64
2023/08/19 18:57:21;;;;;;;3.45;1.75;;;;;;;24.81;58.97;100179.13;10455243;28;20052;-64
2023/08/19 19:02:23;;;;;;;3.42;1.90;;;;;;;24.75;59.08;100177.19;10470618;28;20040;-66
2023/08/19 19:07:26;;;;;;;3.42;1.80;;;;;;;24.69;59.24;100164.47;10472588;28;20094;-64
2023/08/19 19:12:28;;;;;;;4.35;1.83;;;;;;;24.65;59.19;100171.19;10456362;28;20142;-63
2023/08/19 19:18:06;;;;;;;22.88;2.22;;;;;;;24.58;59.97;100183.59;10484461;28;20153;-63
2023/08/19 19:23:08;;;;;;;3.08;1.88;;;;;;;24.46;59.57;100179.63;10395937;28;20052;-63
2023/08/19 19:28:11;;;;;;;4.65;1.83;;;;;;;24.42;59.76;100184.50;10471090;28;20059;-63
2023/08/19 19:33:13;;;;;;;4.72;1.83;;;;;;;24.42;60.10;100202.38;10449081;28;20525;-63
2023/08/19 19:38:15;;;;;;;3.45;1.92;;;;;;;24.31;60.49;100211.59;10455105;28;20139;-63
2023/08/19 19:43:19;;;;;;;6.93;2.55;;;;;;;24.18;60.74;100224.69;10488931;28;20552;-63
2023/08/19 19:48:21;;;;;;;4.75;1.90;;;;;;;24.06;60.92;100216.16;10469399;28;20067;-63
2023/08/19 19:53:23;;;;;;;5.05;1.92;;;;;;;24.00;61.03;100221.38;10469924;28;20056;-63
2023/08/19 19:58:25;;;;;;;5.78;2.00;;;;;;;23.94;61.20;100222.06;10461520;28;20522;-63
2023/08/19 20:03:29;;;;;;;7.07;1.95;;;;;;;23.91;61.62;100225.06;10463508;28;20110;-63
2023/08/19 20:08:32;;;;;;;4.20;2.00;;;;;;;23.90;61.46;100231.41;10456319;28;20481;-63
2023/08/19 20:13:35;;;;;;;5.75;2.00;;;;;;;23.87;61.48;100231.75;10456665;28;20047;-63
2023/08/19 20:18:37;;;;;;;5.68;2.35;;;;;;;23.75;61.84;100249.13;10455720;28;20040;-63
2023/08/19 20:23:39;;;;;;;7.65;2.15;;;;;;;23.72;61.82;100252.13;10457045;28;20398;-63
2023/08/19 20:28:42;;;;;;;4.95;2.00;;;;;;;23.69;62.25;100263.16;10462211;28;20089;-63
2023/08/19 20:33:45;;;;;;;5.53;2.25;;;;;;;23.61;62.39;100268.50;10460646;28;20047;-63
2023/08/19 20:38:47;;;;;;;3.53;1.88;;;;;;;23.60;62.27;100264.13;10478709;28;20047;-64
2023/08/19 20:43:49;;;;;;;5.53;2.03;;;;;;;23.60;62.35;100266.81;10464336;28;20048;-63
2023/08/19 20:48:51;;;;;;;5.30;2.33;;;;;;;23.58;62.40;100275.00;10462529;28;20283;-63
2023/08/19 20:53:53;;;;;;;4.93;2.05;;;;;;;23.58;62.56;100275.00;10444917;28;20046;-63
2023/08/19 20:58:58;;;;;;;4.80;2.10;;;;;;;23.51;62.72;100278.50;10465430;28;20052;-63
2023/08/19 21:04:00;;;;;;;5.90;2.50;;;;;;;23.50;62.65;100283.00;10461690;28;20050;-63
2023/08/19 21:09:03;;;;;;;5.03;2.47;;;;;;;23.40;62.92;100269.81;10447257;28;20056;-63
2023/08/19 21:14:04;;;;;;;4.10;1.88;;;;;;;23.39;62.97;100281.44;10451166;28;20795;-63
2023/08/19 21:19:07;;;;;;;3.97;2.10;;;;;;;23.36;62.99;100284.47;10470918;28;20049;-63
2023/08/19 21:24:09;;;;;;;4.20;2.30;;;;;;;23.32;63.20;100292.97;10474170;28;20048;-63
2023/08/19 21:29:11;;;;;;;5.03;2.28;;;;;;;23.12;63.38;100281.75;10471452;28;20439;-63
2023/08/19 21:34:13;;;;;;;3.83;2.22;;;;;;;22.84;63.77;100279.50;10471305;28;20047;-63
2023/08/19 21:39:15;;;;;;;4.65;2.20;;;;;;;22.81;64.04;100282.47;10470479;28;20485;-62
2023/08/19 21:44:17;;;;;;;8.45;2.55;;;;;;;22.75;64.22;100277.78;10471507;28;20047;-62
2023/08/19 21:49:19;;;;;;;4.43;2.30;;;;;;;22.56;64.54;100287.69;10469833;28;20048;-62
2023/08/19 21:54:21;;;;;;;5.18;2.10;;;;;;;22.39;64.89;100288.59;10466303;28;20082;-62
2023/08/19 21:59:23;;;;;;;4.10;2.10;;;;;;;22.31;64.93;100280.53;10450840;28;20056;-62
2023/08/19 22:04:25;;;;;;;5.32;2.17;;;;;;;22.13;65.17;100276.28;10468755;28;20082;-62
2023/08/19 22:09:27;;;;;;;6.13;2.30;;;;;;;21.74;66.75;100292.59;10470700;28;20143;-62
2023/08/19 22:14:29;;;;;;;3.75;2.10;;;;;;;21.57;66.87;100300.63;10469339;28;20054;-64
2023/08/19 22:19:31;;;;;;;4.65;2.38;;;;;;;21.72;66.77;100281.28;10446471;28;20068;-64
2023/08/19 22:24:33;;;;;;;5.97;2.33;;;;;;;21.78;66.43;100287.84;10467891;28;20052;-63
2023/08/19 22:29:35;;;;;;;4.60;2.45;;;;;;;21.75;66.78;100294.28;10470642;28;20071;-64
2023/08/19 22:34:37;;;;;;;8.25;2.60;;;;;;;21.78;66.77;100295.81;10469633;28;20500;-64
2023/08/19 22:39:41;;;;;;;5.97;2.28;;;;;;;21.79;66.59;100297.47;10470792;28;20051;-63
2023/08/19 22:44:43;;;;;;;4.07;2.10;;;;;;;21.79;66.35;100302.81;10469349;28;20557;-63
2023/08/19 22:49:46;;;;;;;4.10;2.30;;;;;;;21.73;66.55;100306.94;10469387;28;20135;-63
2023/08/19 22:54:48;;;;;;;5.93;2.35;;;;;;;21.66;66.58;100313.84;10469859;28;20135;-63
2023/08/19 22:59:50;;;;;;;4.28;2.17;;;;;;;21.56;66.93;100320.22;10468334;28;20427;-63
2023/08/19 23:04:52;;;;;;;5.80;2.55;;;;;;;21.51;66.93;100312.72;10468000;28;20051;-63
2023/08/19 23:09:54;;;;;;;6.22;2.10;;;;;;;21.19;67.29;100312.38;10468584;28;20503;-63
2023/08/19 23:14:56;;;;;;;5.63;2.72;;;;;;;21.24;67.90;100317.22;10467474;28;20056;-63
2023/08/19 23:19:58;;;;;;;2.97;1.88;;;;;;;21.35;67.41;100317.03;10461762;28;20053;-63
2023/08/19 23:25:00;;;;;;;5.18;2.20;;;;;;;21.19;67.86;100314.19;10467308;28;20137;-63